createdAt,value
2023-02-06T00:00:09.482Z,104251.56
2023-02-06T00:02:10.960Z,104256.75
2023-02-06T00:04:12.917Z,104252.34
2023-02-06T00:06:14.838Z,104254.84
2023-02-06T00:08:16.275Z,104252.03
2023-02-06T00:10:17.741Z,104244.00
2023-02-06T00:12:19.282Z,104241.41
2023-02-06T00:14:20.828Z,104236.19
2023-02-06T00:16:25.272Z,104232.69
2023-02-06T00:18:26.801Z,104231.69
2023-02-06T00:20:28.269Z,104232.59
2023-02-06T00:22:29.718Z,104223.81
2023-02-06T00:24:31.201Z,104229.00
2023-02-06T00:26:32.718Z,104239.28
2023-02-06T00:28:34.549Z,104236.59
2023-02-06T00:30:36.143Z,104239.09
2023-02-06T00:32:37.829Z,104242.47
2023-02-06T00:34:39.341Z,104247.69
2023-02-06T00:36:41.100Z,104256.28
2023-02-06T00:38:42.593Z,104251.97
2023-02-06T00:40:44.041Z,104254.56
2023-02-06T00:42:45.596Z,104251.06
2023-02-06T00:44:47.038Z,104243.19
2023-02-06T00:46:48.518Z,104249.16
2023-02-06T00:48:50.130Z,104246.47
2023-02-06T00:50:52.897Z,104246.38
2023-02-06T00:52:54.472Z,104243.66
2023-02-06T00:54:55.921Z,104242.75
2023-02-06T00:56:57.688Z,104233.16
2023-02-06T00:58:59.669Z,104235.88
2023-02-06T01:01:01.142Z,104228.88
2023-02-06T01:03:02.675Z,104230.34
2023-02-06T01:05:04.512Z,104237.94
2023-02-06T01:07:06.006Z,104230.72
2023-02-06T01:09:07.453Z,104235.81
2023-02-06T01:11:20.183Z,104242.72
2023-02-06T01:13:21.658Z,104241.81
2023-02-06T01:15:23.154Z,104237.41
2023-02-06T01:17:24.613Z,104242.59
2023-02-06T01:19:26.152Z,104236.63
2023-02-06T01:21:27.720Z,104241.91
2023-02-06T01:23:29.170Z,104243.81
2023-02-06T01:25:30.671Z,104243.03
2023-02-06T01:27:32.245Z,104245.63
2023-02-06T01:29:33.724Z,104249.13
2023-02-06T01:31:35.264Z,104240.44
2023-02-06T01:33:36.820Z,104241.22
2023-02-06T01:35:38.307Z,104235.03
2023-02-06T01:37:40.084Z,104236.81
2023-02-06T01:39:41.584Z,104237.84
2023-02-06T01:41:43.050Z,104237.03
2023-02-06T01:44:04.773Z,104238.94
2023-02-06T01:46:07.148Z,104231.03
2023-02-06T01:48:14.022Z,104235.44
2023-02-06T01:50:16.271Z,104231.03
2023-02-06T01:52:21.399Z,104224.06
2023-02-06T01:54:23.595Z,104232.75
2023-02-06T01:56:26.984Z,104233.53
2023-02-06T01:58:36.642Z,104231.75
2023-02-06T02:00:38.180Z,104235.03
2023-02-06T02:02:43.649Z,104235.81
2023-02-06T02:04:45.778Z,104240.00
2023-02-06T02:06:57.798Z,104238.31
2023-02-06T02:09:00.776Z,104237.41
2023-02-06T02:11:04.744Z,104232.13
2023-02-06T02:13:06.301Z,104234.72
2023-02-06T02:15:08.480Z,104239.00
2023-02-06T02:17:34.020Z,104241.59
2023-02-06T02:19:44.645Z,104236.31
2023-02-06T02:22:23.873Z,104239.69
2023-02-06T02:24:46.962Z,104241.38
2023-02-06T02:27:31.350Z,104227.50
2023-02-06T02:29:51.522Z,104226.50
2023-02-06T02:32:17.843Z,104231.56
2023-02-06T02:34:57.010Z,104227.16
2023-02-06T02:37:07.505Z,104221.97
2023-02-06T02:39:24.852Z,104214.06
2023-02-06T02:41:45.113Z,104214.28
2023-02-06T02:44:07.749Z,104215.63
2023-02-06T02:46:26.294Z,104220.13
2023-02-06T02:48:36.017Z,104222.72
2023-02-06T02:50:39.638Z,104224.44
2023-02-06T02:52:41.531Z,104222.63
2023-02-06T02:54:43.042Z,104226.91
2023-02-06T02:56:44.684Z,104227.72
2023-02-06T02:58:50.738Z,104226.72
2023-02-06T03:01:02.309Z,104227.41
2023-02-06T03:03:05.922Z,104234.03
2023-02-06T03:05:12.447Z,104231.34
2023-02-06T03:07:32.429Z,104229.44
2023-02-06T03:09:57.109Z,104229.34
2023-02-06T03:12:09.469Z,104236.91
2023-02-06T03:14:35.936Z,104241.88
2023-02-06T03:16:51.183Z,104243.47
2023-02-06T03:19:05.485Z,104243.38
2023-02-06T03:21:10.736Z,104250.03
2023-02-06T03:23:18.940Z,104238.66
2023-02-06T03:25:28.188Z,104250.63
2023-02-06T03:27:31.275Z,104243.41
2023-02-06T03:29:35.963Z,104244.22
2023-02-06T03:31:49.750Z,104250.09
2023-02-06T03:34:13.998Z,104249.88
2023-02-06T03:36:18.378Z,104251.47
2023-02-06T03:38:19.978Z,104256.53
2023-02-06T03:40:21.917Z,104254.72
2023-02-06T03:42:24.401Z,104261.50
2023-02-06T03:44:31.791Z,104263.97
2023-02-06T03:46:36.556Z,104271.66
2023-02-06T03:48:42.995Z,104274.03
2023-02-06T03:50:47.252Z,104264.44
2023-02-06T03:52:51.088Z,104259.59
2023-02-06T03:54:58.329Z,104256.44
2023-02-06T03:57:02.740Z,104250.13
2023-02-06T03:59:04.287Z,104254.31
2023-02-06T04:01:07.055Z,104246.41
2023-02-06T04:03:10.452Z,104252.41
2023-02-06T04:05:11.998Z,104250.81
2023-02-06T04:07:19.871Z,104246.28
2023-02-06T04:09:21.407Z,104248.75
2023-02-06T04:11:22.878Z,104249.66
2023-02-06T04:13:24.345Z,104259.09
2023-02-06T04:15:25.950Z,104262.13
2023-02-06T04:17:43.298Z,104257.25
2023-02-06T04:19:48.986Z,104248.56
2023-02-06T04:21:50.469Z,104253.88
2023-02-06T04:23:51.929Z,104248.78
2023-02-06T04:25:54.569Z,104253.28
2023-02-06T04:27:56.106Z,104255.41
2023-02-06T04:29:57.581Z,104262.88
2023-02-06T04:32:02.156Z,104262.19
2023-02-06T04:34:03.653Z,104248.38
2023-02-06T04:36:05.503Z,104246.00
2023-02-06T04:38:06.967Z,104250.63
2023-02-06T04:40:08.964Z,104240.53
2023-02-06T04:42:10.598Z,104246.84
2023-02-06T04:44:12.133Z,104245.34
2023-02-06T04:46:13.779Z,104240.56
2023-02-06T04:48:15.262Z,104240.28
2023-02-06T04:50:17.976Z,104235.31
2023-02-06T04:52:19.429Z,104229.41
2023-02-06T04:54:20.985Z,104227.84
2023-02-06T04:56:22.574Z,104227.84
2023-02-06T04:58:24.030Z,104220.25
2023-02-06T05:00:25.583Z,104217.66
2023-02-06T05:02:27.180Z,104206.75
2023-02-06T05:04:28.678Z,104210.56
2023-02-06T05:06:31.172Z,104203.88
2023-02-06T05:08:32.673Z,104203.28
2023-02-06T05:10:34.163Z,104200.97
2023-02-06T05:12:36.128Z,104196.88
2023-02-06T05:14:37.597Z,104192.78
2023-02-06T05:16:39.083Z,104194.78
2023-02-06T05:18:41.226Z,104192.16
2023-02-06T05:20:43.182Z,104185.38
2023-02-06T05:22:44.661Z,104186.16
2023-02-06T05:24:46.150Z,104186.16
2023-02-06T05:26:47.600Z,104187.88
2023-02-06T05:28:49.196Z,104194.88
2023-02-06T05:30:51.007Z,104194.97
2023-02-06T05:32:52.731Z,104191.56
2023-02-06T05:34:54.228Z,104190.66
2023-02-06T05:36:55.689Z,104189.78
2023-02-06T05:38:57.204Z,104198.47
2023-02-06T05:40:58.725Z,104191.56
2023-02-06T05:43:00.209Z,104196.00
2023-02-06T05:45:02.025Z,104195.19
2023-02-06T05:47:03.560Z,104197.00
2023-02-06T05:49:05.258Z,104194.50
2023-02-06T05:51:06.777Z,104193.69
2023-02-06T05:53:08.220Z,104196.41
2023-02-06T05:55:10.183Z,104196.41
2023-02-06T05:57:11.638Z,104194.69
2023-02-06T05:59:13.119Z,104187.69
2023-02-06T06:01:14.676Z,104186.00
2023-02-06T06:03:16.155Z,104177.28
2023-02-06T06:05:17.716Z,104179.09
2023-02-06T06:07:19.181Z,104180.00
2023-02-06T06:09:20.840Z,104178.38
2023-02-06T06:11:22.798Z,104186.19
2023-02-06T06:13:24.262Z,104183.50
2023-02-06T06:15:25.742Z,104186.19
2023-02-06T06:17:27.319Z,104177.50
2023-02-06T06:19:28.781Z,104183.59
2023-02-06T06:21:30.445Z,104192.41
2023-02-06T06:23:31.955Z,104202.19
2023-02-06T06:25:35.098Z,104203.19
2023-02-06T06:27:36.671Z,104201.59
2023-02-06T06:29:38.261Z,104202.50
2023-02-06T06:31:39.734Z,104193.69
2023-02-06T06:33:41.865Z,104195.38
2023-02-06T06:35:43.646Z,104204.19
2023-02-06T06:37:45.183Z,104214.69
2023-02-06T06:39:46.737Z,104214.78
2023-02-06T06:41:48.243Z,104219.19
2023-02-06T06:43:51.535Z,104206.19
2023-02-06T06:45:53.245Z,104211.41
2023-02-06T06:47:54.758Z,104206.09
2023-02-06T06:49:56.274Z,104199.88
2023-02-06T06:51:57.748Z,104199.00
2023-02-06T06:53:59.217Z,104203.28
2023-02-06T06:56:05.299Z,104207.69
2023-02-06T06:58:06.773Z,104212.19
2023-02-06T07:00:09.323Z,104216.69
2023-02-06T07:02:11.238Z,104218.59
2023-02-06T07:04:12.702Z,104217.00
2023-02-06T07:06:15.299Z,104210.19
2023-02-06T07:08:16.761Z,104217.38
2023-02-06T07:10:18.665Z,104218.38
2023-02-06T07:12:20.480Z,104213.28
2023-02-06T07:14:21.926Z,104225.47
2023-02-06T07:16:24.605Z,104215.97
2023-02-06T07:18:26.110Z,104221.28
2023-02-06T07:20:27.889Z,104222.31
2023-02-06T07:22:29.399Z,104218.09
2023-02-06T07:24:30.932Z,104222.59
2023-02-06T07:26:32.450Z,104226.91
2023-02-06T07:28:34.276Z,104225.19
2023-02-06T07:30:35.988Z,104232.19
2023-02-06T07:32:37.804Z,104235.91
2023-02-06T07:34:40.593Z,104238.59
2023-02-06T07:36:42.519Z,104233.59
2023-02-06T07:38:44.231Z,104229.38
2023-02-06T07:40:46.199Z,104228.75
2023-02-06T07:42:47.761Z,104223.66
2023-02-06T07:44:49.228Z,104234.16
2023-02-06T07:46:52.793Z,104235.16
2023-02-06T07:48:54.301Z,104229.94
2023-02-06T07:50:56.459Z,104236.16
2023-02-06T07:52:58.469Z,104236.25
2023-02-06T07:54:59.947Z,104246.75
2023-02-06T07:57:01.560Z,104235.44
2023-02-06T07:59:03.546Z,104241.38
2023-02-06T08:01:06.241Z,104241.38
2023-02-06T08:03:08.248Z,104249.09
2023-02-06T08:05:09.994Z,104243.88
2023-02-06T08:07:14.949Z,104247.28
2023-02-06T08:09:17.503Z,104247.38
2023-02-06T08:11:20.469Z,104250.97
2023-02-06T08:13:21.941Z,104243.44
2023-02-06T08:15:23.576Z,104243.63
2023-02-06T08:17:25.099Z,104243.03
2023-02-06T08:19:26.636Z,104226.81
2023-02-06T08:21:28.428Z,104232.31
2023-02-06T08:23:29.986Z,104239.31
2023-02-06T08:25:31.437Z,104234.31
2023-02-06T08:27:33.346Z,104237.72
2023-02-06T08:29:42.387Z,104237.00
2023-02-06T08:31:43.969Z,104242.50
2023-02-06T08:33:46.312Z,104241.06
2023-02-06T08:35:47.769Z,104250.88
2023-02-06T08:37:49.227Z,104242.44
2023-02-06T08:39:50.674Z,104256.56
2023-02-06T08:41:52.233Z,104250.63
2023-02-06T08:43:57.369Z,104249.00
2023-02-06T08:45:59.584Z,104242.38
2023-02-06T08:48:01.130Z,104239.28
2023-02-06T08:50:03.727Z,104244.75
2023-02-06T08:52:05.918Z,104246.75
2023-02-06T08:54:10.910Z,104244.50
2023-02-06T08:56:12.818Z,104238.66
2023-02-06T08:58:14.279Z,104238.03
2023-02-06T09:00:17.433Z,104241.72
2023-02-06T09:02:19.064Z,104241.81
2023-02-06T09:04:20.727Z,104244.50
2023-02-06T09:06:22.298Z,104242.72
2023-02-06T09:08:23.790Z,104244.50
2023-02-06T09:10:30.367Z,104244.78
2023-02-06T09:12:31.870Z,104250.38
2023-02-06T09:14:35.351Z,104251.56
2023-02-06T09:16:37.941Z,104253.53
2023-02-06T09:18:40.239Z,104263.34
2023-02-06T09:20:41.682Z,104264.41
2023-02-06T09:22:44.689Z,104260.19
2023-02-06T09:24:46.267Z,104259.38
2023-02-06T09:26:59.369Z,104250.66
2023-02-06T09:29:05.453Z,104248.94
2023-02-06T09:31:08.187Z,104248.28
2023-02-06T09:33:09.704Z,104252.97
2023-02-06T09:35:11.229Z,104244.59
2023-02-06T09:37:12.704Z,104237.84
2023-02-06T09:39:14.278Z,104239.03
2023-02-06T09:41:24.403Z,104246.03
2023-02-06T09:43:26.231Z,104253.41
2023-02-06T09:45:29.952Z,104257.56
2023-02-06T09:47:35.177Z,104242.63
2023-02-06T09:49:44.540Z,104239.19
2023-02-06T09:51:45.986Z,104238.56
2023-02-06T09:54:09.429Z,104243.97
2023-02-06T09:56:25.933Z,104250.28
2023-02-06T09:58:47.188Z,104242.63
2023-02-06T10:00:58.483Z,104241.00
2023-02-06T10:03:23.786Z,104241.19
2023-02-06T10:05:47.204Z,104239.72
2023-02-06T10:07:55.753Z,104243.22
2023-02-06T10:10:06.650Z,104240.53
2023-02-06T10:12:15.473Z,104240.53
2023-02-06T10:14:22.295Z,104242.16
2023-02-06T10:16:54.844Z,104237.75
2023-02-06T10:19:01.243Z,104230.81
2023-02-06T10:21:11.938Z,104230.72
2023-02-06T10:23:41.102Z,104237.03
2023-02-06T10:25:49.858Z,104235.31
2023-02-06T10:27:54.783Z,104239.81
2023-02-06T10:29:56.306Z,104237.38
2023-02-06T10:32:15.679Z,104233.94
2023-02-06T10:34:47.183Z,104238.44
2023-02-06T10:37:05.158Z,104242.13
2023-02-06T10:39:37.861Z,104243.19
2023-02-06T10:41:51.103Z,104252.19
2023-02-06T10:44:04.526Z,104242.78
2023-02-06T10:46:33.247Z,104253.63
2023-02-06T10:48:42.556Z,104257.28
2023-02-06T10:50:50.765Z,104250.59
2023-02-06T10:52:56.283Z,104241.22
2023-02-06T10:55:03.336Z,104242.47
2023-02-06T10:57:15.916Z,104243.84
2023-02-06T10:59:17.320Z,104239.94
2023-02-06T11:01:26.419Z,104247.13
2023-02-06T11:03:31.824Z,104238.56
2023-02-06T11:05:33.895Z,104242.09
2023-02-06T11:07:42.329Z,104243.59
2023-02-06T11:09:44.710Z,104238.47
2023-02-06T11:11:48.466Z,104232.53
2023-02-06T11:13:58.586Z,104235.16
2023-02-06T11:16:05.088Z,104232.53
2023-02-06T11:18:12.874Z,104238.97
2023-02-06T11:20:25.500Z,104238.16
2023-02-06T11:22:33.354Z,104233.03
2023-02-06T11:24:39.258Z,104239.06
2023-02-06T11:26:54.623Z,104228.78
2023-02-06T11:29:01.971Z,104231.22
2023-02-06T11:31:07.163Z,104226.00
2023-02-06T11:33:47.437Z,104218.06
2023-02-06T11:35:59.501Z,104211.94
2023-02-06T11:38:07.735Z,104217.34
2023-02-06T11:40:21.613Z,104211.44
2023-02-06T11:42:28.428Z,104216.84
2023-02-06T11:44:37.286Z,104213.78
2023-02-06T11:46:39.019Z,104204.72
2023-02-06T11:48:45.354Z,104211.34
2023-02-06T11:50:54.491Z,104205.81
2023-02-06T11:53:07.912Z,104200.97
2023-02-06T11:55:23.816Z,104205.91
2023-02-06T11:57:26.827Z,104200.25
2023-02-06T11:59:29.622Z,104205.00
2023-02-06T12:01:42.102Z,104205.13
2023-02-06T12:03:49.583Z,104214.03
2023-02-06T12:05:52.162Z,104204.25
2023-02-06T12:07:57.001Z,104210.59
2023-02-06T12:09:58.504Z,104212.91
2023-02-06T12:12:10.033Z,104208.81
2023-02-06T12:14:19.044Z,104207.75
2023-02-06T12:16:22.623Z,104207.66
2023-02-06T12:18:27.745Z,104206.84
2023-02-06T12:20:35.089Z,104207.28
2023-02-06T12:22:42.860Z,104194.41
2023-02-06T12:24:48.447Z,104191.16
2023-02-06T12:26:51.116Z,104180.00
2023-02-06T12:29:08.073Z,104188.00
2023-02-06T12:31:41.693Z,104190.75
2023-02-06T12:33:48.806Z,104188.06
2023-02-06T12:36:00.942Z,104188.13
2023-02-06T12:38:13.871Z,104184.63
2023-02-06T12:40:38.549Z,104180.28
2023-02-06T12:42:47.326Z,104184.34
2023-02-06T12:45:03.269Z,104190.38
2023-02-06T12:47:19.719Z,104177.16
2023-02-06T12:49:35.386Z,104171.94
2023-02-06T12:51:41.951Z,104179.59
2023-02-06T12:53:51.056Z,104183.72
2023-02-06T12:55:56.382Z,104185.63
2023-02-06T12:57:58.320Z,104181.03
2023-02-06T13:00:09.630Z,104177.25
2023-02-06T13:02:17.103Z,104178.84
2023-02-06T13:04:31.606Z,104170.47
2023-02-06T13:06:44.019Z,104167.97
2023-02-06T13:09:01.180Z,104171.31
2023-02-06T13:11:24.287Z,104170.50
2023-02-06T13:13:45.785Z,104166.91
2023-02-06T13:15:54.889Z,104168.13
2023-02-06T13:17:56.908Z,104172.22
2023-02-06T13:20:18.945Z,104163.00
2023-02-06T13:22:21.291Z,104155.81
2023-02-06T13:24:22.790Z,104163.75
2023-02-06T13:26:53.361Z,104166.72
2023-02-06T13:28:58.698Z,104159.41
2023-02-06T13:31:09.712Z,104157.97
2023-02-06T13:33:20.092Z,104163.69
2023-02-06T13:35:27.942Z,104163.50
2023-02-06T13:37:39.797Z,104160.50
2023-02-06T13:39:48.011Z,104161.13
2023-02-06T13:41:49.744Z,104165.91
2023-02-06T13:43:58.257Z,104169.38
2023-02-06T13:46:05.643Z,104163.91
2023-02-06T13:48:46.631Z,104161.59
2023-02-06T13:50:54.845Z,104172.03
2023-02-06T13:53:42.006Z,104176.63
2023-02-06T13:55:58.366Z,104177.19
2023-02-06T13:58:27.154Z,104191.06
2023-02-06T14:00:32.192Z,104191.97
2023-02-06T14:02:40.644Z,104193.75
2023-02-06T14:04:44.380Z,104200.47
2023-02-06T14:07:23.501Z,104198.50
2023-02-06T14:09:44.075Z,104187.94
2023-02-06T14:12:22.344Z,104193.03
2023-02-06T14:14:55.984Z,104196.50
2023-02-06T14:17:34.413Z,104194.69
2023-02-06T14:19:35.769Z,104195.53
2023-02-06T14:22:00.425Z,104195.47
2023-02-06T14:24:08.066Z,104191.13
2023-02-06T14:26:35.533Z,104192.78
2023-02-06T14:28:52.183Z,104200.16
2023-02-06T14:31:33.294Z,104200.47
2023-02-06T14:34:10.548Z,104204.38
2023-02-06T14:36:48.191Z,104199.88
2023-02-06T14:38:52.617Z,104193.34
2023-02-06T14:40:56.550Z,104191.75
2023-02-06T14:43:02.066Z,104194.44
2023-02-06T14:45:08.835Z,104192.56
2023-02-06T14:47:40.929Z,104189.88
2023-02-06T14:49:42.513Z,104192.38
2023-02-06T14:51:50.578Z,104194.00
2023-02-06T14:54:02.177Z,104196.56
2023-02-06T14:56:18.697Z,104193.75
2023-02-06T14:58:29.406Z,104194.44
2023-02-06T15:00:31.993Z,104196.91
2023-02-06T15:02:36.029Z,104196.66
2023-02-06T15:04:46.150Z,104192.88
2023-02-06T15:06:58.938Z,104189.09
2023-02-06T15:09:01.154Z,104190.63
2023-02-06T15:11:06.466Z,104185.03
2023-02-06T15:13:21.043Z,104170.00
2023-02-06T15:15:25.373Z,104169.63
2023-02-06T15:17:26.920Z,104170.25
2023-02-06T15:19:30.868Z,104164.81
2023-02-06T15:21:32.351Z,104164.53
2023-02-06T15:23:46.040Z,104165.28
2023-02-06T15:26:02.563Z,104157.34
2023-02-06T15:28:06.838Z,104157.16
2023-02-06T15:30:25.879Z,104163.09
2023-02-06T15:32:37.923Z,104159.34
2023-02-06T15:34:39.422Z,104174.06
2023-02-06T15:36:40.879Z,104167.75
2023-02-06T15:38:43.315Z,104176.28
2023-02-06T15:40:48.753Z,104165.69
2023-02-06T15:42:51.093Z,104165.53
2023-02-06T15:44:52.737Z,104174.09
2023-02-06T15:46:56.211Z,104169.53
2023-02-06T15:48:58.421Z,104160.56
2023-02-06T15:51:19.369Z,104156.00
2023-02-06T15:53:30.118Z,104155.78
2023-02-06T15:55:35.341Z,104158.19
2023-02-06T15:57:42.836Z,104163.22
2023-02-06T15:59:44.690Z,104156.03
2023-02-06T16:01:47.435Z,104148.84
2023-02-06T16:03:53.235Z,104151.25
2023-02-06T16:05:56.519Z,104149.31
2023-02-06T16:07:59.113Z,104144.69
2023-02-06T16:10:23.914Z,104152.25
2023-02-06T16:12:25.613Z,104150.25
2023-02-06T16:14:33.770Z,104152.72
2023-02-06T16:16:35.354Z,104154.97
2023-02-06T16:18:40.064Z,104149.47
2023-02-06T16:20:42.859Z,104156.28
2023-02-06T16:22:44.320Z,104156.94
2023-02-06T16:24:46.062Z,104153.13
2023-02-06T16:26:52.117Z,104155.59
2023-02-06T16:29:03.357Z,104157.91
2023-02-06T16:31:05.661Z,104151.41
2023-02-06T16:33:37.245Z,104154.53
2023-02-06T16:35:38.682Z,104160.16
2023-02-06T16:37:40.155Z,104158.97
2023-02-06T16:39:43.652Z,104163.88
2023-02-06T16:41:49.492Z,104161.94
2023-02-06T16:43:52.443Z,104162.50
2023-02-06T16:45:53.966Z,104166.53
2023-02-06T16:47:55.776Z,104174.13
2023-02-06T16:49:57.290Z,104178.19
2023-02-06T16:51:59.374Z,104177.94
2023-02-06T16:54:00.813Z,104179.41
2023-02-06T16:56:02.394Z,104183.59
2023-02-06T16:58:03.898Z,104188.56
2023-02-06T17:00:15.854Z,104184.97
2023-02-06T17:02:17.404Z,104185.63
2023-02-06T17:04:18.854Z,104196.66
2023-02-06T17:06:23.844Z,104200.81
2023-02-06T17:08:25.831Z,104200.47
2023-02-06T17:10:27.305Z,104200.28
2023-02-06T17:12:30.647Z,104200.91
2023-02-06T17:14:32.099Z,104202.38
2023-02-06T17:16:33.766Z,104193.41
2023-02-06T17:18:35.211Z,104205.38
2023-02-06T17:20:39.917Z,104205.22
2023-02-06T17:22:41.481Z,104212.72
2023-02-06T17:24:43.154Z,104210.50
2023-02-06T17:26:44.593Z,104211.72
2023-02-06T17:28:46.485Z,104211.56
2023-02-06T17:30:50.685Z,104215.72
2023-02-06T17:32:52.358Z,104211.03
2023-02-06T17:34:54.460Z,104213.38
2023-02-06T17:36:56.646Z,104229.69
2023-02-06T17:38:59.373Z,104225.09
2023-02-06T17:41:00.858Z,104226.53
2023-02-06T17:43:04.553Z,104226.38
2023-02-06T17:45:06.456Z,104229.50
2023-02-06T17:47:07.987Z,104231.81
2023-02-06T17:49:09.436Z,104236.84
2023-02-06T17:51:11.499Z,104233.97
2023-02-06T17:53:14.075Z,104237.13
2023-02-06T17:55:16.219Z,104235.16
2023-02-06T17:57:17.702Z,104234.88
2023-02-06T17:59:19.148Z,104238.09
2023-02-06T18:01:23.263Z,104226.50
2023-02-06T18:03:25.224Z,104233.16
2023-02-06T18:05:27.294Z,104227.75
2023-02-06T18:07:28.773Z,104230.94
2023-02-06T18:09:30.320Z,104231.56
2023-02-06T18:11:32.193Z,104228.69
2023-02-06T18:13:33.786Z,104228.41
2023-02-06T18:15:35.304Z,104233.44
2023-02-06T18:17:36.906Z,104235.75
2023-02-06T18:19:46.535Z,104231.25
2023-02-06T18:21:48.054Z,104235.38
2023-02-06T18:23:49.529Z,104232.59
2023-02-06T18:25:51.079Z,104234.91
2023-02-06T18:27:52.628Z,104224.22
2023-02-06T18:29:55.128Z,104223.09
2023-02-06T18:31:56.755Z,104223.63
2023-02-06T18:33:58.691Z,104230.34
2023-02-06T18:36:05.002Z,104229.34
2023-02-06T18:38:09.693Z,104233.38
2023-02-06T18:40:11.551Z,104233.25
2023-02-06T18:42:31.663Z,104235.78
2023-02-06T18:44:34.904Z,104244.19
2023-02-06T18:46:37.981Z,104239.69
2023-02-06T18:48:39.547Z,104238.59
2023-02-06T18:50:42.780Z,104235.00
2023-02-06T18:52:44.265Z,104235.72
2023-02-06T18:54:46.797Z,104238.22
2023-02-06T18:56:49.774Z,104242.44
2023-02-06T18:58:51.413Z,104240.44
2023-02-06T19:00:52.869Z,104244.59
2023-02-06T19:02:57.072Z,104231.38
2023-02-06T19:04:59.129Z,104233.00
2023-02-06T19:07:00.652Z,104239.81
2023-02-06T19:09:07.036Z,104233.41
2023-02-06T19:11:09.013Z,104226.19
2023-02-06T19:13:10.577Z,104231.22
2023-02-06T19:15:13.346Z,104226.59
2023-02-06T19:17:14.878Z,104223.81
2023-02-06T19:19:16.738Z,104231.41
2023-02-06T19:21:20.836Z,104233.81
2023-02-06T19:23:22.361Z,104231.91
2023-02-06T19:25:23.900Z,104236.91
2023-02-06T19:27:26.182Z,104235.91
2023-02-06T19:29:35.543Z,104241.00
2023-02-06T19:31:40.495Z,104243.38
2023-02-06T19:33:42.144Z,104237.28
2023-02-06T19:35:44.194Z,104237.28
2023-02-06T19:37:45.720Z,104243.38
2023-02-06T19:39:47.368Z,104240.78
2023-02-06T19:41:48.842Z,104250.28
2023-02-06T19:43:53.176Z,104255.50
2023-02-06T19:45:54.781Z,104247.69
2023-02-06T19:47:57.172Z,104242.38
2023-02-06T19:49:58.688Z,104245.00
2023-02-06T19:52:00.361Z,104244.19
2023-02-06T19:54:01.984Z,104249.38
2023-02-06T19:56:04.610Z,104252.69
2023-02-06T19:58:06.203Z,104252.69
2023-02-06T20:00:08.418Z,104257.78
2023-02-06T20:02:13.215Z,104264.59
2023-02-06T20:04:15.246Z,104257.50
2023-02-06T20:06:17.809Z,104261.78
2023-02-06T20:08:19.326Z,104269.50
2023-02-06T20:10:21.935Z,104271.88
2023-02-06T20:12:23.491Z,104264.88
2023-02-06T20:14:25.882Z,104270.78
2023-02-06T20:16:30.654Z,104266.38
2023-02-06T20:18:34.406Z,104261.88
2023-02-06T20:20:36.361Z,104267.78
2023-02-06T20:22:39.898Z,104270.16
2023-02-06T20:24:41.374Z,104273.56
2023-02-06T20:26:43.245Z,104272.56
2023-02-06T20:28:45.660Z,104268.94
2023-02-06T20:30:47.543Z,104267.94
2023-02-06T20:32:49.107Z,104268.53
2023-02-06T20:34:50.588Z,104277.91
2023-02-06T20:36:52.341Z,104275.09
2023-02-06T20:38:56.366Z,104279.28
2023-02-06T20:40:57.873Z,104275.56
2023-02-06T20:42:59.418Z,104285.06
2023-02-06T20:45:00.946Z,104284.06
2023-02-06T20:47:02.489Z,104273.56
2023-02-06T20:49:09.227Z,104277.75
2023-02-06T20:51:11.108Z,104281.03
2023-02-06T20:53:12.647Z,104281.72
2023-02-06T20:55:14.201Z,104287.63
2023-02-06T20:57:15.660Z,104286.50
2023-02-06T20:59:19.122Z,104290.69
2023-02-06T21:01:23.313Z,104288.78
2023-02-06T21:03:24.990Z,104285.97
2023-02-06T21:05:27.022Z,104284.97
2023-02-06T21:07:29.037Z,104284.75
2023-02-06T21:09:30.736Z,104292.44
2023-02-06T21:11:39.158Z,104293.13
2023-02-06T21:13:41.423Z,104296.28
2023-02-06T21:15:43.342Z,104292.56
2023-02-06T21:17:44.842Z,104294.03
2023-02-06T21:19:46.317Z,104293.81
2023-02-06T21:21:49.295Z,104290.22
2023-02-06T21:23:51.162Z,104291.81
2023-02-06T21:25:54.950Z,104286.41
2023-02-06T21:27:56.448Z,104286.19
2023-02-06T21:29:58.611Z,104286.88
2023-02-06T21:32:12.733Z,104296.34
2023-02-06T21:34:18.508Z,104299.63
2023-02-06T21:36:21.140Z,104300.31
2023-02-06T21:38:23.948Z,104299.31
2023-02-06T21:40:25.443Z,104293.91
2023-02-06T21:42:27.526Z,104300.66
2023-02-06T21:44:29.097Z,104296.16
2023-02-06T21:46:31.012Z,104299.41
2023-02-06T21:48:33.488Z,104297.59
2023-02-06T21:50:38.447Z,104303.59
2023-02-06T21:52:39.984Z,104299.06
2023-02-06T21:54:41.465Z,104303.38
2023-02-06T21:56:43.273Z,104308.34
2023-02-06T21:58:45.345Z,104306.53
2023-02-06T22:00:47.684Z,104307.31
2023-02-06T22:02:49.190Z,104308.09
2023-02-06T22:04:50.666Z,104307.00
2023-02-06T22:06:52.121Z,104314.56
2023-02-06T22:08:55.916Z,104319.50
2023-02-06T22:10:57.372Z,104317.59
2023-02-06T22:12:58.834Z,104321.78
2023-02-06T22:15:00.726Z,104320.66
2023-02-06T22:17:02.205Z,104319.53
2023-02-06T22:19:04.863Z,104323.47
2023-02-06T22:21:08.748Z,104327.53
2023-02-06T22:23:10.206Z,104323.88
2023-02-06T22:25:11.832Z,104327.28
2023-02-06T22:27:13.288Z,104324.56
2023-02-06T22:29:16.815Z,104330.53
2023-02-06T22:31:23.301Z,104327.72
2023-02-06T22:33:24.770Z,104324.78
2023-02-06T22:35:26.232Z,104319.38
2023-02-06T22:37:30.613Z,104327.03
2023-02-06T22:39:32.075Z,104326.00
2023-02-06T22:41:35.081Z,104326.69
2023-02-06T22:43:38.526Z,104324.78
2023-02-06T22:45:40.112Z,104335.03
2023-02-06T22:47:41.600Z,104337.50
2023-02-06T22:49:43.147Z,104337.38
2023-02-06T22:51:45.551Z,104330.41
2023-02-06T22:53:47.254Z,104332.88
2023-02-06T22:56:07.234Z,104331.06
2023-02-06T22:58:08.693Z,104334.34
2023-02-06T23:00:12.113Z,104328.13
2023-02-06T23:02:13.865Z,104338.50
2023-02-06T23:04:21.388Z,104335.78
2023-02-06T23:06:23.406Z,104333.88
2023-02-06T23:08:24.945Z,104334.66
2023-02-06T23:10:26.428Z,104335.56
2023-02-06T23:12:28.297Z,104335.44
2023-02-06T23:14:31.805Z,104330.13
2023-02-06T23:16:35.219Z,104330.00
2023-02-06T23:18:37.255Z,104327.28
2023-02-06T23:20:38.841Z,104322.78
2023-02-06T23:22:40.293Z,104328.88
2023-02-06T23:24:41.787Z,104329.66
2023-02-06T23:26:46.399Z,104327.84
2023-02-06T23:28:47.876Z,104327.84
2023-02-06T23:30:49.717Z,104328.63
2023-02-06T23:32:51.721Z,104334.59
2023-02-06T23:34:53.171Z,104325.81
2023-02-06T23:36:54.705Z,104319.59
2023-02-06T23:38:56.441Z,104325.56
2023-02-06T23:41:04.597Z,104324.66
2023-02-06T23:43:06.787Z,104327.03
2023-02-06T23:45:08.606Z,104321.72
2023-02-06T23:47:10.083Z,104320.47
2023-02-06T23:49:11.614Z,104325.41
2023-02-06T23:51:13.269Z,104326.22
2023-02-06T23:53:14.750Z,104318.31